sensor_id;sensor_type;location;lat;lon;timestamp;pressure;altitude;pressure_sealevel;temperature;humidity
83025;BME280;72958;53.326;-1.496;2023-10-19T00:00:23;96044.48;;;14.72;51.93
83025;BME280;72958;53.326;-1.496;2023-10-19T00:03:26;96037.58;;;14.85;51.69
83025;BME280;72958;53.326;-1.496;2023-10-19T00:05:49;96031.28;;;14.95;51.49
83025;BME280;72958;53.326;-1.496;2023-10-19T00:08:29;96028.51;;;15.25;50.75
83025;BME280;72958;53.326;-1.496;2023-10-19T00:11:31;96021.72;;;15.65;50.88
83025;BME280;72958;53.326;-1.496;2023-10-19T00:14:37;96018.98;;;15.17;50.53
83025;BME280;72958;53.326;-1.496;2023-10-19T00:17:04;96013.75;;;15.17;50.46
83025;BME280;72958;53.326;-1.496;2023-10-19T00:19:37;96012.79;;;16.02;49.37
83025;BME280;72958;53.326;-1.496;2023-10-19T00:22:07;96009.04;;;15.45;50.29
83025;BME280;72958;53.326;-1.496;2023-10-19T00:24:47;96004.07;;;15.45;50.39
83025;BME280;72958;53.326;-1.496;2023-10-19T00:27:29;95998.44;;;15.74;49.82
83025;BME280;72958;53.326;-1.496;2023-10-19T00:30:11;95995.69;;;15.42;50.11
83025;BME280;72958;53.326;-1.496;2023-10-19T00:32:38;95995.46;;;15.68;49.97
83025;BME280;72958;53.326;-1.496;2023-10-19T00:35:08;95994.77;;;15.75;48.85
83025;BME280;72958;53.326;-1.496;2023-10-19T00:37:50;95992.70;;;16.06;48.33
83025;BME280;72958;53.326;-1.496;2023-10-19T00:40:35;95988.73;;;15.63;48.72
83025;BME280;72958;53.326;-1.496;2023-10-19T00:43:07;95988.35;;;16.03;48.23
83025;BME280;72958;53.326;-1.496;2023-10-19T00:46:03;95983.98;;;16.22;47.84
83025;BME280;72958;53.326;-1.496;2023-10-19T00:48:53;95980.50;;;15.97;47.97
83025;BME280;72958;53.326;-1.496;2023-10-19T00:51:36;95973.47;;;16.50;47.32
83025;BME280;72958;53.326;-1.496;2023-10-19T00:54:10;95970.78;;;16.09;48.04
83025;BME280;72958;53.326;-1.496;2023-10-19T00:56:42;95969.37;;;16.36;47.61
83025;BME280;72958;53.326;-1.496;2023-10-19T00:59:13;95960.26;;;16.58;47.29
83025;BME280;72958;53.326;-1.496;2023-10-19T01:02:32;95958.53;;;16.67;46.73
83025;BME280;72958;53.326;-1.496;2023-10-19T01:05:41;95954.62;;;16.68;46.64
83025;BME280;72958;53.326;-1.496;2023-10-19T01:08:08;95953.48;;;16.79;46.71
83025;BME280;72958;53.326;-1.496;2023-10-19T01:11:20;95953.58;;;16.90;46.70
83025;BME280;72958;53.326;-1.496;2023-10-19T01:13:48;95951.32;;;16.62;46.31
83025;BME280;72958;53.326;-1.496;2023-10-19T01:16:25;95949.87;;;16.84;46.32
83025;BME280;72958;53.326;-1.496;2023-10-19T01:18:50;95948.73;;;16.65;46.23
83025;BME280;72958;53.326;-1.496;2023-10-19T01:21:37;95946.16;;;16.73;46.44
83025;BME280;72958;53.326;-1.496;2023-10-19T01:24:12;95943.07;;;16.38;46.50
83025;BME280;72958;53.326;-1.496;2023-10-19T01:26:49;95940.81;;;16.63;46.18
83025;BME280;72958;53.326;-1.496;2023-10-19T01:29:30;95941.62;;;16.31;47.04
83025;BME280;72958;53.326;-1.496;2023-10-19T01:31:58;95942.65;;;16.37;46.93
83025;BME280;72958;53.326;-1.496;2023-10-19T01:34:31;95943.54;;;16.97;46.41
83025;BME280;72958;53.326;-1.496;2023-10-19T01:37:00;95940.89;;;17.02;46.35
83025;BME280;72958;53.326;-1.496;2023-10-19T01:39:56;95935.13;;;16.80;45.96
83025;BME280;72958;53.326;-1.496;2023-10-19T01:42:56;95933.72;;;16.92;45.74
83025;BME280;72958;53.326;-1.496;2023-10-19T01:45:46;95927.41;;;17.03;45.77
83025;BME280;72958;53.326;-1.496;2023-10-19T01:49:07;95936.87;;;16.54;46.18
83025;BME280;72958;53.326;-1.496;2023-10-19T01:51:51;95933.61;;;16.64;46.40
83025;BME280;72958;53.326;-1.496;2023-10-19T01:54:26;95923.93;;;16.83;46.10
83025;BME280;72958;53.326;-1.496;2023-10-19T01:57:09;95919.61;;;16.90;45.95
83025;BME280;72958;53.326;-1.496;2023-10-19T01:59:41;95935.89;;;15.56;48.22
83025;BME280;72958;53.326;-1.496;2023-10-19T02:02:14;95931.48;;;16.22;47.58
83025;BME280;72958;53.326;-1.496;2023-10-19T02:04:56;95931.53;;;15.88;47.74
83025;BME280;72958;53.326;-1.496;2023-10-19T02:07:27;95931.97;;;16.29;46.62
83025;BME280;72958;53.326;-1.496;2023-10-19T02:09:55;95935.35;;;15.90;47.69
83025;BME280;72958;53.326;-1.496;2023-10-19T02:12:24;95935.86;;;15.83;47.94
83025;BME280;72958;53.326;-1.496;2023-10-19T02:14:59;95937.65;;;15.68;48.60
83025;BME280;72958;53.326;-1.496;2023-10-19T02:17:38;95943.19;;;15.70;48.43
83025;BME280;72958;53.326;-1.496;2023-10-19T02:20:06;95939.99;;;16.15;47.79
83025;BME280;72958;53.326;-1.496;2023-10-19T02:22:32;95943.29;;;16.01;48.09
83025;BME280;72958;53.326;-1.496;2023-10-19T02:25:15;95943.59;;;15.86;47.95
83025;BME280;72958;53.326;-1.496;2023-10-19T02:27:57;95945.74;;;15.71;47.79
83025;BME280;72958;53.326;-1.496;2023-10-19T02:30:28;95948.55;;;15.45;48.15
83025;BME280;72958;53.326;-1.496;2023-10-19T02:32:55;95946.95;;;15.91;48.40
83025;BME280;72958;53.326;-1.496;2023-10-19T02:35:51;95947.25;;;16.10;47.31
83025;BME280;72958;53.326;-1.496;2023-10-19T02:38:47;95946.95;;;16.50;46.60
83025;BME280;72958;53.326;-1.496;2023-10-19T02:41:13;95948.08;;;16.07;47.37
83025;BME280;72958;53.326;-1.496;2023-10-19T02:43:47;95949.12;;;16.27;47.03
83025;BME280;72958;53.326;-1.496;2023-10-19T02:46:13;95954.24;;;16.61;47.36
83025;BME280;72958;53.326;-1.496;2023-10-19T02:48:48;95956.90;;;16.49;47.11
83025;BME280;72958;53.326;-1.496;2023-10-19T02:51:15;95961.91;;;16.24;47.57
83025;BME280;72958;53.326;-1.496;2023-10-19T02:53:41;95956.89;;;16.29;47.45
83025;BME280;72958;53.326;-1.496;2023-10-19T02:56:25;95953.99;;;15.49;49.72
83025;BME280;72958;53.326;-1.496;2023-10-19T02:58:50;95950.86;;;15.23;49.94
83025;BME280;72958;53.326;-1.496;2023-10-19T03:01:21;95950.82;;;14.78;51.07
83025;BME280;72958;53.326;-1.496;2023-10-19T03:03:54;95942.14;;;15.11;50.41
83025;BME280;72958;53.326;-1.496;2023-10-19T03:07:06;95935.75;;;14.32;52.47
83025;BME280;72958;53.326;-1.496;2023-10-19T03:09:54;95941.67;;;14.72;51.25
83025;BME280;72958;53.326;-1.496;2023-10-19T03:12:20;95941.18;;;14.36;51.92
83025;BME280;72958;53.326;-1.496;2023-10-19T03:15:47;95946.91;;;13.87;54.04
83025;BME280;72958;53.326;-1.496;2023-10-19T03:18:20;95948.98;;;14.24;52.49
83025;BME280;72958;53.326;-1.496;2023-10-19T03:20:52;95945.32;;;13.66;54.28
83025;BME280;72958;53.326;-1.496;2023-10-19T03:23:29;95945.72;;;13.54;55.42
83025;BME280;72958;53.326;-1.496;2023-10-19T03:27:09;95947.25;;;14.43;53.33
83025;BME280;72958;53.326;-1.496;2023-10-19T03:29:51;95949.37;;;14.25;54.09
83025;BME280;72958;53.326;-1.496;2023-10-19T03:32:19;95947.20;;;14.25;53.90
83025;BME280;72958;53.326;-1.496;2023-10-19T03:34:48;95946.91;;;14.24;53.55
83025;BME280;72958;53.326;-1.496;2023-10-19T03:37:16;95946.31;;;13.28;56.67
83025;BME280;72958;53.326;-1.496;2023-10-19T03:40:38;95950.09;;;13.62;55.26
83025;BME280;72958;53.326;-1.496;2023-10-19T03:43:15;95955.90;;;12.31;59.51
83025;BME280;72958;53.326;-1.496;2023-10-19T03:46:23;95955.05;;;12.77;58.83
83025;BME280;72958;53.326;-1.496;2023-10-19T03:49:03;95956.32;;;13.30;56.67
83025;BME280;72958;53.326;-1.496;2023-10-19T03:51:36;95957.06;;;11.97;60.30
83025;BME280;72958;53.326;-1.496;2023-10-19T03:54:04;95958.76;;;13.88;55.02
83025;BME280;72958;53.326;-1.496;2023-10-19T03:56:52;95960.82;;;13.97;55.00
83025;BME280;72958;53.326;-1.496;2023-10-19T03:59:48;95967.38;;;14.01;54.99
83025;BME280;72958;53.326;-1.496;2023-10-19T04:02:17;95971.47;;;13.96;54.67
83025;BME280;72958;53.326;-1.496;2023-10-19T04:04:50;95971.22;;;12.32;59.18
83025;BME280;72958;53.326;-1.496;2023-10-19T04:07:35;95968.47;;;13.06;57.27
83025;BME280;72958;53.326;-1.496;2023-10-19T04:10:01;95961.49;;;13.06;57.33
83025;BME280;72958;53.326;-1.496;2023-10-19T04:12:36;95963.41;;;13.35;56.73
83025;BME280;72958;53.326;-1.496;2023-10-19T04:15:19;95967.40;;;13.31;56.93
83025;BME280;72958;53.326;-1.496;2023-10-19T04:17:58;95965.67;;;13.02;58.27
83025;BME280;72958;53.326;-1.496;2023-10-19T04:20:40;95969.27;;;13.96;55.82
83025;BME280;72958;53.326;-1.496;2023-10-19T04:23:27;95971.14;;;13.97;55.87
83025;BME280;72958;53.326;-1.496;2023-10-19T04:25:53;95973.73;;;14.06;56.26
83025;BME280;72958;53.326;-1.496;2023-10-19T04:28:19;95972.64;;;13.38;56.88
83025;BME280;72958;53.326;-1.496;2023-10-19T04:31:00;95975.30;;;13.67;57.45
83025;BME280;72958;53.326;-1.496;2023-10-19T04:33:48;95977.17;;;13.26;58.28
83025;BME280;72958;53.326;-1.496;2023-10-19T04:36:18;95986.28;;;13.74;57.00
83025;BME280;72958;53.326;-1.496;2023-10-19T04:38:44;95989.47;;;12.80;59.26
83025;BME280;72958;53.326;-1.496;2023-10-19T04:41:26;95983.11;;;13.53;57.34
83025;BME280;72958;53.326;-1.496;2023-10-19T04:44:12;95984.73;;;12.73;60.81
83025;BME280;72958;53.326;-1.496;2023-10-19T04:46:57;95986.23;;;13.58;57.89
83025;BME280;72958;53.326;-1.496;2023-10-19T04:49:47;95988.23;;;13.55;57.53
83025;BME280;72958;53.326;-1.496;2023-10-19T04:52:30;95989.63;;;13.79;57.83
83025;BME280;72958;53.326;-1.496;2023-10-19T04:55:33;95991.35;;;13.84;57.50
83025;BME280;72958;53.326;-1.496;2023-10-19T04:58:48;95995.59;;;14.54;54.09
83025;BME280;72958;53.326;-1.496;2023-10-19T05:02:00;95988.85;;;14.87;52.94
83025;BME280;72958;53.326;-1.496;2023-10-19T05:04:27;95987.07;;;14.66;52.35
83025;BME280;72958;53.326;-1.496;2023-10-19T05:06:56;95994.48;;;13.64;54.37
83025;BME280;72958;53.326;-1.496;2023-10-19T05:10:16;96001.23;;;14.48;53.42
83025;BME280;72958;53.326;-1.496;2023-10-19T05:12:55;96005.40;;;14.90;52.92
83025;BME280;72958;53.326;-1.496;2023-10-19T05:15:30;96008.72;;;12.41;59.53
83025;BME280;72958;53.326;-1.496;2023-10-19T05:18:06;96001.87;;;14.05;56.26
83025;BME280;72958;53.326;-1.496;2023-10-19T05:20:42;96007.36;;;14.32;54.23
83025;BME280;72958;53.326;-1.496;2023-10-19T05:23:26;96009.80;;;13.62;57.43
83025;BME280;72958;53.326;-1.496;2023-10-19T05:26:06;96011.79;;;14.04;56.24
83025;BME280;72958;53.326;-1.496;2023-10-19T05:28:38;96019.33;;;15.22;52.72
83025;BME280;72958;53.326;-1.496;2023-10-19T05:31:04;96021.26;;;15.00;52.82
83025;BME280;72958;53.326;-1.496;2023-10-19T05:33:29;96024.52;;;15.46;52.16
83025;BME280;72958;53.326;-1.496;2023-10-19T05:36:21;96028.61;;;14.88;52.54
83025;BME280;72958;53.326;-1.496;2023-10-19T05:38:49;96029.86;;;15.18;52.38
83025;BME280;72958;53.326;-1.496;2023-10-19T05:41:55;96034.08;;;15.23;52.85
83025;BME280;72958;53.326;-1.496;2023-10-19T05:45:35;96033.60;;;14.56;53.29
83025;BME280;72958;53.326;-1.496;2023-10-19T05:48:06;96034.72;;;15.39;51.99
83025;BME280;72958;53.326;-1.496;2023-10-19T05:52:04;96033.25;;;14.43;53.31
83025;BME280;72958;53.326;-1.496;2023-10-19T05:54:35;96035.89;;;15.74;51.01
83025;BME280;72958;53.326;-1.496;2023-10-19T05:57:25;96040.27;;;15.70;50.22
83025;BME280;72958;53.326;-1.496;2023-10-19T05:59:55;96038.28;;;16.50;49.40
83025;BME280;72958;53.326;-1.496;2023-10-19T06:02:22;96031.86;;;16.79;48.51
83025;BME280;72958;53.326;-1.496;2023-10-19T06:04:57;96039.14;;;15.53;50.81
83025;BME280;72958;53.326;-1.496;2023-10-19T06:07:39;96044.34;;;15.75;51.15
83025;BME280;72958;53.326;-1.496;2023-10-19T06:10:12;96040.80;;;14.80;52.39
83025;BME280;72958;53.326;-1.496;2023-10-19T06:13:00;96043.30;;;16.01;50.81
83025;BME280;72958;53.326;-1.496;2023-10-19T06:15:28;96038.18;;;16.16;50.15
83025;BME280;72958;53.326;-1.496;2023-10-19T06:18:06;96030.02;;;16.92;48.31
83025;BME280;72958;53.326;-1.496;2023-10-19T06:22:13;96039.78;;;16.56;48.87
83025;BME280;72958;53.326;-1.496;2023-10-19T06:24:56;96041.48;;;16.76;49.43
83025;BME280;72958;53.326;-1.496;2023-10-19T06:27:32;96039.76;;;16.69;48.79
83025;BME280;72958;53.326;-1.496;2023-10-19T06:30:37;96042.51;;;16.45;49.10
83025;BME280;72958;53.326;-1.496;2023-10-19T06:33:10;96042.07;;;17.25;47.75
83025;BME280;72958;53.326;-1.496;2023-10-19T06:35:35;96051.71;;;16.54;48.54
83025;BME280;72958;53.326;-1.496;2023-10-19T06:38:17;96050.66;;;17.24;47.76
83025;BME280;72958;53.326;-1.496;2023-10-19T06:41:10;96057.89;;;16.89;48.47
83025;BME280;72958;53.326;-1.496;2023-10-19T06:44:26;96062.23;;;17.71;47.14
83025;BME280;72958;53.326;-1.496;2023-10-19T06:47:07;96068.33;;;17.09;48.40
83025;BME280;72958;53.326;-1.496;2023-10-19T06:50:15;96066.66;;;17.25;48.10
83025;BME280;72958;53.326;-1.496;2023-10-19T06:53:09;96072.51;;;17.40;47.48
83025;BME280;72958;53.326;-1.496;2023-10-19T06:56:15;96066.15;;;17.41;48.09
83025;BME280;72958;53.326;-1.496;2023-10-19T06:58:42;96066.43;;;17.79;47.43
83025;BME280;72958;53.326;-1.496;2023-10-19T07:01:35;96066.13;;;17.45;47.20
83025;BME280;72958;53.326;-1.496;2023-10-19T07:04:06;96060.73;;;17.77;47.20
83025;BME280;72958;53.326;-1.496;2023-10-19T07:06:32;96063.24;;;17.52;47.75
83025;BME280;72958;53.326;-1.496;2023-10-19T07:09:08;96059.74;;;17.81;46.85
83025;BME280;72958;53.326;-1.496;2023-10-19T07:11:38;96060.41;;;17.73;46.89
83025;BME280;72958;53.326;-1.496;2023-10-19T07:14:15;96058.21;;;17.21;48.03
83025;BME280;72958;53.326;-1.496;2023-10-19T07:17:00;96057.88;;;17.91;46.88
83025;BME280;72958;53.326;-1.496;2023-10-19T07:20:02;96060.03;;;17.99;46.67
83025;BME280;72958;53.326;-1.496;2023-10-19T07:23:12;96061.19;;;18.02;46.58
83025;BME280;72958;53.326;-1.496;2023-10-19T07:25:48;96061.66;;;18.39;46.33
83025;BME280;72958;53.326;-1.496;2023-10-19T07:29:29;96066.52;;;17.99;46.68
83025;BME280;72958;53.326;-1.496;2023-10-19T07:32:03;96067.80;;;18.21;46.70
83025;BME280;72958;53.326;-1.496;2023-10-19T07:35:07;96070.43;;;18.18;46.41
83025;BME280;72958;53.326;-1.496;2023-10-19T07:38:04;96072.01;;;18.49;46.27
83025;BME280;72958;53.326;-1.496;2023-10-19T07:40:49;96070.80;;;18.50;46.39
83025;BME280;72958;53.326;-1.496;2023-10-19T07:44:02;96071.91;;;18.28;46.42
83025;BME280;72958;53.326;-1.496;2023-10-19T07:46:27;96066.39;;;18.29;46.41
83025;BME280;72958;53.326;-1.496;2023-10-19T07:49:20;96067.26;;;18.10;46.88
83025;BME280;72958;53.326;-1.496;2023-10-19T07:53:07;96065.76;;;18.32;46.54
83025;BME280;72958;53.326;-1.496;2023-10-19T07:55:37;96064.98;;;18.30;46.69
83025;BME280;72958;53.326;-1.496;2023-10-19T07:58:16;96065.29;;;18.37;46.54
83025;BME280;72958;53.326;-1.496;2023-10-19T08:01:13;96064.96;;;17.88;47.85
83025;BME280;72958;53.326;-1.496;2023-10-19T08:03:47;96067.70;;;18.26;47.35
83025;BME280;72958;53.326;-1.496;2023-10-19T08:06:37;96070.94;;;17.80;48.40
83025;BME280;72958;53.326;-1.496;2023-10-19T08:09:07;96071.37;;;18.50;47.62
83025;BME280;72958;53.326;-1.496;2023-10-19T08:12:01;96074.08;;;18.03;47.91
83025;BME280;72958;53.326;-1.496;2023-10-19T08:14:39;96071.51;;;18.46;47.11
83025;BME280;72958;53.326;-1.496;2023-10-19T08:17:11;96073.81;;;17.21;48.80
83025;BME280;72958;53.326;-1.496;2023-10-19T08:19:53;96071.88;;;18.06;47.93
83025;BME280;72958;53.326;-1.496;2023-10-19T08:22:43;96074.38;;;18.69;47.34
83025;BME280;72958;53.326;-1.496;2023-10-19T08:25:11;96074.60;;;17.81;48.53
83025;BME280;72958;53.326;-1.496;2023-10-19T08:27:45;96080.22;;;17.76;49.17
83025;BME280;72958;53.326;-1.496;2023-10-19T08:30:25;96073.42;;;18.49;48.11
83025;BME280;72958;53.326;-1.496;2023-10-19T08:33:03;96077.78;;;18.25;48.13
83025;BME280;72958;53.326;-1.496;2023-10-19T08:35:34;96074.23;;;17.75;49.17
83025;BME280;72958;53.326;-1.496;2023-10-19T08:38:00;96077.53;;;18.29;48.70
83025;BME280;72958;53.326;-1.496;2023-10-19T08:40:34;96073.41;;;18.47;48.01
83025;BME280;72958;53.326;-1.496;2023-10-19T08:43:11;96071.99;;;17.70;49.45
83025;BME280;72958;53.326;-1.496;2023-10-19T08:45:45;96069.86;;;18.40;48.14
83025;BME280;72958;53.326;-1.496;2023-10-19T08:48:22;96069.00;;;18.81;47.86
83025;BME280;72958;53.326;-1.496;2023-10-19T08:50:49;96075.51;;;18.32;48.32
83025;BME280;72958;53.326;-1.496;2023-10-19T08:53:58;96070.72;;;18.09;49.07
83025;BME280;72958;53.326;-1.496;2023-10-19T08:56:31;96069.94;;;18.43;48.60
83025;BME280;72958;53.326;-1.496;2023-10-19T08:59:12;96074.50;;;18.61;48.64
83025;BME280;72958;53.326;-1.496;2023-10-19T09:02:08;96077.23;;;18.10;49.44
83025;BME280;72958;53.326;-1.496;2023-10-19T09:04:58;96079.94;;;18.03;49.38
83025;BME280;72958;53.326;-1.496;2023-10-19T09:08:40;96080.92;;;19.01;48.27
83025;BME280;72958;53.326;-1.496;2023-10-19T09:11:07;96078.54;;;18.02;49.08
83025;BME280;72958;53.326;-1.496;2023-10-19T09:13:46;96079.31;;;19.29;47.71
83025;BME280;72958;53.326;-1.496;2023-10-19T09:16:08;96080.39;;;19.09;48.07
83025;BME280;72958;53.326;-1.496;2023-10-19T09:19:04;96079.89;;;18.32;48.85
83025;BME280;72958;53.326;-1.496;2023-10-19T09:21:50;96080.14;;;19.47;48.00
83025;BME280;72958;53.326;-1.496;2023-10-19T09:24:17;96089.08;;;17.04;52.33
83025;BME280;72958;53.326;-1.496;2023-10-19T09:26:44;96085.30;;;18.99;49.05
83025;BME280;72958;53.326;-1.496;2023-10-19T09:29:24;96089.13;;;19.30;48.39
83025;BME280;72958;53.326;-1.496;2023-10-19T09:32:16;96087.87;;;18.56;49.36
83025;BME280;72958;53.326;-1.496;2023-10-19T09:34:49;96087.06;;;17.79;51.68
83025;BME280;72958;53.326;-1.496;2023-10-19T09:37:20;96085.30;;;18.17;49.73
83025;BME280;72958;53.326;-1.496;2023-10-19T09:40:06;96084.74;;;19.09;49.01
83025;BME280;72958;53.326;-1.496;2023-10-19T09:42:44;96086.94;;;19.20;48.29
83025;BME280;72958;53.326;-1.496;2023-10-19T09:45:10;96088.87;;;18.99;48.48
83025;BME280;72958;53.326;-1.496;2023-10-19T09:47:38;96093.30;;;18.94;48.97
83025;BME280;72958;53.326;-1.496;2023-10-19T09:50:24;96095.98;;;19.36;47.87
83025;BME280;72958;53.326;-1.496;2023-10-19T09:53:01;96093.98;;;18.75;48.63
83025;BME280;72958;53.326;-1.496;2023-10-19T09:56:27;96092.48;;;19.63;47.67
83025;BME280;72958;53.326;-1.496;2023-10-19T09:59:28;96094.95;;;20.12;46.75
83025;BME280;72958;53.326;-1.496;2023-10-19T10:02:16;96093.28;;;18.62;49.53
83025;BME280;72958;53.326;-1.496;2023-10-19T10:07:42;96099.21;;;18.59;49.77
83025;BME280;72958;53.326;-1.496;2023-10-19T10:11:21;96097.18;;;18.88;48.49
83025;BME280;72958;53.326;-1.496;2023-10-19T10:14:21;96102.97;;;18.99;48.63
83025;BME280;72958;53.326;-1.496;2023-10-19T10:16:44;96108.54;;;18.19;50.00
83025;BME280;72958;53.326;-1.496;2023-10-19T10:19:37;96113.77;;;17.97;51.68
83025;BME280;72958;53.326;-1.496;2023-10-19T10:22:12;96113.07;;;19.09;49.27
83025;BME280;72958;53.326;-1.496;2023-10-19T10:24:55;96111.47;;;20.06;47.11
83025;BME280;72958;53.326;-1.496;2023-10-19T10:27:36;96119.47;;;19.75;46.93
83025;BME280;72958;53.326;-1.496;2023-10-19T10:30:26;96118.77;;;19.76;47.05
83025;BME280;72958;53.326;-1.496;2023-10-19T10:35:54;96122.35;;;20.07;46.60
83025;BME280;72958;53.326;-1.496;2023-10-19T10:38:40;96122.30;;;19.43;47.39
83025;BME280;72958;53.326;-1.496;2023-10-19T10:41:11;96122.75;;;19.40;47.91
83025;BME280;72958;53.326;-1.496;2023-10-19T10:43:59;96122.52;;;19.88;47.41
83025;BME280;72958;53.326;-1.496;2023-10-19T10:47:21;96123.68;;;19.56;47.58
83025;BME280;72958;53.326;-1.496;2023-10-19T10:49:55;96127.42;;;20.22;46.87
83025;BME280;72958;53.326;-1.496;2023-10-19T10:52:28;96128.63;;;20.63;45.85
83025;BME280;72958;53.326;-1.496;2023-10-19T10:55:06;96129.92;;;20.15;45.97
83025;BME280;72958;53.326;-1.496;2023-10-19T10:57:44;96129.34;;;20.87;46.21
83025;BME280;72958;53.326;-1.496;2023-10-19T11:00:43;96128.47;;;20.54;46.31
83025;BME280;72958;53.326;-1.496;2023-10-19T11:03:24;96131.41;;;19.87;46.23
83025;BME280;72958;53.326;-1.496;2023-10-19T11:06:05;96133.73;;;20.55;45.60
83025;BME280;72958;53.326;-1.496;2023-10-19T11:09:09;96134.39;;;20.73;46.31
83025;BME280;72958;53.326;-1.496;2023-10-19T11:12:27;96137.55;;;19.89;46.99
83025;BME280;72958;53.326;-1.496;2023-10-19T11:15:28;96138.27;;;20.34;46.62
83025;BME280;72958;53.326;-1.496;2023-10-19T11:18:00;96140.01;;;20.21;46.70
83025;BME280;72958;53.326;-1.496;2023-10-19T11:20:27;96138.41;;;20.05;46.94
83025;BME280;72958;53.326;-1.496;2023-10-19T11:27:22;96143.12;;;20.31;46.20
83025;BME280;72958;53.326;-1.496;2023-10-19T11:29:54;96140.90;;;20.51;46.13
83025;BME280;72958;53.326;-1.496;2023-10-19T11:32:52;96136.01;;;20.23;46.49
83025;BME280;72958;53.326;-1.496;2023-10-19T11:35:31;96135.54;;;19.39;47.80
83025;BME280;72958;53.326;-1.496;2023-10-19T11:38:19;96138.91;;;18.81;48.77
83025;BME280;72958;53.326;-1.496;2023-10-19T11:41:32;96132.88;;;19.95;47.13
83025;BME280;72958;53.326;-1.496;2023-10-19T11:45:37;96131.65;;;19.88;46.85
83025;BME280;72958;53.326;-1.496;2023-10-19T11:48:05;96126.67;;;20.12;47.05
83025;BME280;72958;53.326;-1.496;2023-10-19T11:50:44;96130.37;;;20.27;46.83
83025;BME280;72958;53.326;-1.496;2023-10-19T11:53:10;96128.67;;;20.09;47.13
83025;BME280;72958;53.326;-1.496;2023-10-19T11:56:16;96131.71;;;20.81;45.26
83025;BME280;72958;53.326;-1.496;2023-10-19T11:58:49;96134.94;;;21.02;45.33
83025;BME280;72958;53.326;-1.496;2023-10-19T12:02:07;96137.71;;;20.23;45.72
83025;BME280;72958;53.326;-1.496;2023-10-19T12:04:56;96134.73;;;20.05;46.98
83025;BME280;72958;53.326;-1.496;2023-10-19T12:07:24;96132.49;;;20.26;46.64
83025;BME280;72958;53.326;-1.496;2023-10-19T12:10:02;96130.92;;;19.78;46.86
83025;BME280;72958;53.326;-1.496;2023-10-19T12:14:15;96132.11;;;19.68;46.92
83025;BME280;72958;53.326;-1.496;2023-10-19T12:16:42;96131.88;;;20.52;45.53
83025;BME280;72958;53.326;-1.496;2023-10-19T12:19:42;96132.99;;;21.37;44.46
83025;BME280;72958;53.326;-1.496;2023-10-19T12:22:31;96124.79;;;20.84;44.30
83025;BME280;72958;53.326;-1.496;2023-10-19T12:25:53;96123.73;;;20.85;45.51
83025;BME280;72958;53.326;-1.496;2023-10-19T12:29:16;96124.54;;;21.32;43.21
83025;BME280;72958;53.326;-1.496;2023-10-19T12:32:03;96120.25;;;21.71;42.35
83025;BME280;72958;53.326;-1.496;2023-10-19T12:34:35;96117.92;;;21.45;42.70
83025;BME280;72958;53.326;-1.496;2023-10-19T12:37:06;96117.36;;;21.53;42.78
83025;BME280;72958;53.326;-1.496;2023-10-19T12:40:34;96119.35;;;21.45;43.28
83025;BME280;72958;53.326;-1.496;2023-10-19T12:43:08;96119.07;;;21.41;42.82
83025;BME280;72958;53.326;-1.496;2023-10-19T12:45:33;96118.41;;;22.12;42.82
83025;BME280;72958;53.326;-1.496;2023-10-19T12:48:16;96119.41;;;21.96;42.56
83025;BME280;72958;53.326;-1.496;2023-10-19T12:52:20;96117.51;;;20.80;44.60
83025;BME280;72958;53.326;-1.496;2023-10-19T12:54:56;96115.88;;;21.04;44.36
83025;BME280;72958;53.326;-1.496;2023-10-19T12:57:54;96118.00;;;21.68;43.49
83025;BME280;72958;53.326;-1.496;2023-10-19T13:00:19;96119.59;;;21.21;44.07
83025;BME280;72958;53.326;-1.496;2023-10-19T13:02:53;96119.96;;;21.19;44.02
83025;BME280;72958;53.326;-1.496;2023-10-19T13:05:53;96115.93;;;22.35;42.98
83025;BME280;72958;53.326;-1.496;2023-10-19T13:09:14;96115.87;;;22.70;41.32
83025;BME280;72958;53.326;-1.496;2023-10-19T13:13:08;96119.79;;;23.68;40.47
83025;BME280;72958;53.326;-1.496;2023-10-19T13:15:57;96119.37;;;24.17;38.88
83025;BME280;72958;53.326;-1.496;2023-10-19T13:19:28;96115.08;;;24.51;38.28
83025;BME280;72958;53.326;-1.496;2023-10-19T13:22:06;96113.55;;;24.54;38.21
83025;BME280;72958;53.326;-1.496;2023-10-19T13:25:12;96106.70;;;24.51;37.53
83025;BME280;72958;53.326;-1.496;2023-10-19T13:28:03;96106.99;;;24.04;37.64
83025;BME280;72958;53.326;-1.496;2023-10-19T13:30:54;96105.73;;;23.53;38.60
83025;BME280;72958;53.326;-1.496;2023-10-19T13:33:37;96102.90;;;23.53;39.31
83025;BME280;72958;53.326;-1.496;2023-10-19T13:36:51;96105.96;;;23.29;39.72
83025;BME280;72958;53.326;-1.496;2023-10-19T13:39:28;96104.38;;;23.44;38.82
83025;BME280;72958;53.326;-1.496;2023-10-19T13:42:08;96103.07;;;23.35;39.48
83025;BME280;72958;53.326;-1.496;2023-10-19T13:44:52;96103.19;;;23.26;40.66
83025;BME280;72958;53.326;-1.496;2023-10-19T13:48:05;96102.15;;;23.26;40.31
83025;BME280;72958;53.326;-1.496;2023-10-19T13:50:54;96099.18;;;23.53;39.93
83025;BME280;72958;53.326;-1.496;2023-10-19T13:53:43;96097.69;;;23.22;39.92
83025;BME280;72958;53.326;-1.496;2023-10-19T13:56:20;96091.53;;;23.14;40.65
83025;BME280;72958;53.326;-1.496;2023-10-19T13:59:02;96092.70;;;22.49;41.19
83025;BME280;72958;53.326;-1.496;2023-10-19T14:01:32;96092.40;;;22.82;40.40
83025;BME280;72958;53.326;-1.496;2023-10-19T14:04:31;96092.32;;;22.48;41.13
83025;BME280;72958;53.326;-1.496;2023-10-19T14:07:22;96095.20;;;22.65;40.61
83025;BME280;72958;53.326;-1.496;2023-10-19T14:09:57;96099.36;;;22.46;40.98
83025;BME280;72958;53.326;-1.496;2023-10-19T14:13:04;96095.70;;;22.54;40.12
83025;BME280;72958;53.326;-1.496;2023-10-19T14:15:32;96093.77;;;22.77;40.09
83025;BME280;72958;53.326;-1.496;2023-10-19T14:18:32;96092.78;;;22.44;39.89
83025;BME280;72958;53.326;-1.496;2023-10-19T14:21:35;96092.94;;;22.31;40.37
83025;BME280;72958;53.326;-1.496;2023-10-19T14:24:21;96094.51;;;21.85;41.29
83025;BME280;72958;53.326;-1.496;2023-10-19T14:28:16;96093.80;;;21.85;42.01
83025;BME280;72958;53.326;-1.496;2023-10-19T14:31:20;96085.22;;;21.61;42.00
83025;BME280;72958;53.326;-1.496;2023-10-19T14:34:53;96083.14;;;21.52;42.24
83025;BME280;72958;53.326;-1.496;2023-10-19T14:38:30;96084.50;;;21.55;42.28